createdAt,value
2023-04-18T12:54:35.185Z,67.60
2023-04-18T12:55:35.117Z,67.29
2023-04-18T12:56:34.311Z,67.39
2023-04-18T12:57:34.165Z,68.30
2023-04-18T12:58:34.349Z,67.09
2023-04-18T12:59:34.617Z,68.43
2023-04-18T13:00:34.250Z,68.33
2023-04-18T13:01:34.543Z,68.13
2023-04-18T13:02:34.058Z,68.84
2023-04-18T13:03:34.360Z,69.24
2023-04-18T13:04:34.392Z,69.04
2023-04-18T13:05:35.120Z,68.33
2023-04-18T13:06:34.068Z,68.74
2023-04-18T13:07:34.150Z,68.84
2023-04-18T13:08:34.284Z,67.83
2023-04-18T13:09:34.172Z,68.43
2023-04-18T13:10:33.994Z,68.23
2023-04-18T13:11:34.175Z,67.83
2023-04-18T13:12:34.140Z,68.63
2023-04-18T13:13:35.743Z,68.51
2023-04-18T13:14:34.096Z,67.90
2023-04-18T13:15:34.072Z,69.11
2023-04-18T13:16:33.277Z,68.10
2023-04-18T13:17:34.930Z,67.90
2023-04-18T13:18:34.681Z,67.90
2023-04-18T13:19:33.882Z,67.80
2023-04-18T13:20:33.199Z,67.09
2023-04-18T13:21:33.862Z,67.29
2023-04-18T13:22:33.163Z,68.60
2023-04-18T13:23:34.416Z,68.00
2023-04-18T13:24:33.202Z,68.10
2023-04-18T13:25:33.832Z,68.71
2023-04-18T13:26:33.122Z,67.19
2023-04-18T13:27:34.462Z,68.51
2023-04-18T13:28:33.113Z,68.71
2023-04-18T13:29:33.092Z,69.45
2023-04-18T13:30:33.424Z,69.45
2023-04-18T13:31:33.971Z,68.57
2023-04-18T13:32:34.732Z,69.78
2023-04-18T13:33:34.910Z,70.79
2023-04-18T13:34:34.747Z,69.18
2023-04-18T13:35:34.933Z,70.56
2023-04-18T13:36:33.025Z,69.95
2023-04-18T13:37:34.451Z,69.27
2023-04-18T13:38:33.752Z,70.49
2023-04-18T13:39:34.833Z,71.13
2023-04-18T13:40:33.781Z,71.23
2023-04-18T13:41:33.763Z,71.94
2023-04-18T13:42:34.685Z,71.37
2023-04-18T13:43:34.753Z,72.58
2023-04-18T13:44:34.653Z,72.78
2023-04-18T13:45:33.832Z,72.17
2023-04-18T13:46:32.975Z,71.26
2023-04-18T13:47:34.018Z,71.37
2023-04-18T13:48:33.753Z,72.28
2023-04-18T13:49:33.605Z,71.70
2023-04-18T13:50:34.671Z,73.32
2023-04-18T13:51:34.661Z,72.81
2023-04-18T13:52:34.721Z,73.22
2023-04-18T13:53:33.598Z,72.52
2023-04-18T13:54:33.843Z,73.63
2023-04-18T13:55:34.531Z,72.96
2023-04-18T13:56:34.705Z,73.25
2023-04-18T13:57:33.495Z,73.46
2023-04-18T13:58:33.651Z,73.86
2023-04-18T13:59:34.253Z,74.10
2023-04-18T14:00:32.753Z,74.51
2023-04-18T14:01:34.390Z,74.71
2023-04-18T14:02:33.729Z,74.51
2023-04-18T14:03:35.607Z,74.10
2023-04-18T14:04:32.939Z,74.41
2023-04-18T14:05:34.622Z,74.61
2023-04-18T14:06:34.021Z,74.54
2023-04-18T14:07:33.664Z,74.74
2023-04-18T14:08:32.679Z,75.76
2023-04-18T14:09:32.678Z,74.65
2023-04-18T14:10:33.381Z,75.15
2023-04-18T14:11:32.922Z,76.37
2023-04-18T14:12:32.772Z,76.17
2023-04-18T14:13:34.642Z,76.67
2023-04-18T14:14:34.095Z,77.08
2023-04-18T14:15:32.679Z,76.67
2023-04-18T14:16:33.365Z,76.87
2023-04-18T14:17:33.464Z,76.98
2023-04-18T14:18:33.387Z,76.27
2023-04-18T14:19:33.432Z,75.86
2023-04-18T14:20:32.552Z,76.61
2023-04-18T14:21:33.202Z,77.32
2023-04-18T14:22:32.592Z,76.47
2023-04-18T14:23:34.442Z,77.18
2023-04-18T14:24:33.741Z,76.67
2023-04-18T14:25:33.255Z,76.37
2023-04-18T14:26:32.481Z,77.28
2023-04-18T14:27:34.000Z,77.48
2023-04-18T14:28:33.411Z,77.38
2023-04-18T14:29:32.461Z,77.08
2023-04-18T14:30:34.160Z,77.48
2023-04-18T14:31:33.284Z,76.47
2023-04-18T14:32:32.436Z,77.69
2023-04-18T14:33:34.255Z,77.18
2023-04-18T14:34:34.784Z,77.22
2023-04-18T14:35:32.401Z,77.32
2023-04-18T14:36:34.239Z,77.01
2023-04-18T14:37:32.401Z,77.72
2023-04-18T14:38:34.160Z,78.03
2023-04-18T14:39:33.756Z,78.47
2023-04-18T14:40:33.199Z,78.23
2023-04-18T14:41:32.338Z,78.44
2023-04-18T14:42:33.856Z,77.83
2023-04-18T14:43:32.356Z,78.03
2023-04-18T14:44:34.373Z,77.66
2023-04-18T14:45:33.303Z,77.76
2023-04-18T14:46:32.304Z,78.37
2023-04-18T14:47:32.307Z,78.17
2023-04-18T14:48:33.253Z,78.37
2023-04-18T14:49:32.292Z,78.30
2023-04-18T14:50:33.760Z,78.91
2023-04-18T14:51:32.219Z,78.10
2023-04-18T14:52:33.990Z,78.20
2023-04-18T14:53:33.172Z,78.34
2023-04-18T14:54:33.071Z,78.64
2023-04-18T14:55:32.948Z,78.95
2023-04-18T14:56:32.168Z,78.85
2023-04-18T14:57:34.401Z,78.95
2023-04-18T14:58:33.628Z,79.83
2023-04-18T14:59:32.141Z,79.36
2023-04-18T15:00:33.011Z,81.25
2023-04-18T15:01:32.208Z,80.94
2023-04-18T15:02:34.073Z,82.26
2023-04-18T15:03:33.718Z,83.08
2023-04-18T15:04:32.153Z,82.92
2023-04-18T15:05:32.940Z,84.91
2023-04-18T15:06:32.726Z,84.50
2023-04-18T15:07:32.898Z,84.34
2023-04-18T15:08:33.057Z,85.15
2023-04-18T15:09:32.972Z,84.44
2023-04-18T15:10:32.000Z,84.95
2023-04-18T15:11:32.905Z,85.60
2023-04-18T15:12:31.981Z,87.02
2023-04-18T15:13:32.811Z,86.57
2023-04-18T15:14:32.926Z,87.38
2023-04-18T15:15:33.670Z,87.79
2023-04-18T15:16:33.063Z,87.18
2023-04-18T15:17:33.365Z,86.37
2023-04-18T15:18:31.988Z,86.27
2023-04-18T15:19:33.826Z,86.16
2023-04-18T15:20:32.671Z,87.18
2023-04-18T15:21:31.900Z,87.08
2023-04-18T15:22:33.501Z,85.35
2023-04-18T15:23:32.710Z,86.74
2023-04-18T15:24:32.673Z,84.34
2023-04-18T15:25:31.864Z,83.73
2023-04-18T15:26:33.516Z,84.38
2023-04-18T15:27:32.634Z,84.88
2023-04-18T15:28:31.880Z,84.28
2023-04-18T15:29:32.692Z,84.78
2023-04-18T15:30:31.794Z,85.49
2023-04-18T15:31:33.399Z,85.19
2023-04-18T15:32:32.875Z,85.80
2023-04-18T15:33:32.642Z,84.99
2023-04-18T15:34:31.761Z,84.82
2023-04-18T15:35:32.535Z,86.04
2023-04-18T15:36:31.779Z,86.19
2023-04-18T15:37:33.397Z,87.20
2023-04-18T15:38:33.303Z,87.57
2023-04-18T15:39:31.732Z,86.55
2023-04-18T15:40:33.245Z,86.71
2023-04-18T15:41:32.621Z,86.71
2023-04-18T15:42:32.541Z,86.00
2023-04-18T15:43:32.548Z,85.90
2023-04-18T15:44:32.463Z,86.55
2023-04-18T15:45:32.444Z,87.87
2023-04-18T15:46:32.582Z,88.48
2023-04-18T15:47:32.274Z,88.48
2023-04-18T15:48:32.503Z,88.18
2023-04-18T15:49:32.208Z,87.67
2023-04-18T15:50:33.569Z,86.45
2023-04-18T15:51:32.245Z,87.98
2023-04-18T15:52:32.476Z,87.26
2023-04-18T15:53:32.453Z,88.48
2023-04-18T15:54:32.380Z,88.89
2023-04-18T15:55:32.299Z,88.75
2023-04-18T15:56:33.795Z,87.98
2023-04-18T15:57:32.268Z,88.44
2023-04-18T15:58:32.453Z,87.32
2023-04-18T15:59:32.227Z,87.23
2023-04-18T16:00:32.340Z,86.15
2023-04-18T16:01:32.251Z,86.35
2023-04-18T16:02:32.112Z,86.69
2023-04-18T16:03:32.471Z,87.71
2023-04-18T16:04:32.304Z,88.53
2023-04-18T16:05:33.297Z,89.85
2023-04-18T16:06:33.068Z,87.30
2023-04-18T16:07:32.314Z,87.41
2023-04-18T16:08:33.369Z,87.77
2023-04-18T16:09:32.212Z,87.26
2023-04-18T16:10:32.156Z,85.53
2023-04-18T16:11:32.148Z,85.98
2023-04-18T16:12:33.138Z,86.39
2023-04-18T16:13:33.293Z,86.90
2023-04-18T16:14:32.099Z,87.30
2023-04-18T16:15:32.399Z,86.90
2023-04-18T16:16:32.737Z,86.90
2023-04-18T16:17:31.938Z,86.69
2023-04-18T16:18:32.119Z,85.98
2023-04-18T16:19:32.569Z,86.94
2023-04-18T16:20:32.126Z,86.90
2023-04-18T16:21:31.888Z,86.94
2023-04-18T16:22:32.038Z,86.63
2023-04-18T16:23:31.871Z,86.94
2023-04-18T16:24:32.527Z,87.04
2023-04-18T16:25:31.919Z,87.55
2023-04-18T16:26:33.108Z,86.90
2023-04-18T16:27:32.010Z,85.88
2023-04-18T16:28:32.018Z,85.92
2023-04-18T16:29:31.987Z,86.74
2023-04-18T16:30:31.970Z,86.53
2023-04-18T16:31:32.072Z,87.24
2023-04-18T16:32:31.842Z,86.74
2023-04-18T16:33:31.965Z,86.74
2023-04-18T16:34:31.725Z,86.94
2023-04-18T16:35:31.909Z,86.13
2023-04-18T16:36:31.731Z,86.74
2023-04-18T16:37:31.989Z,87.14
2023-04-18T16:38:32.892Z,86.37
2023-04-18T16:39:31.908Z,87.29
2023-04-18T16:40:31.796Z,86.47
2023-04-18T16:41:32.872Z,86.27
2023-04-18T16:42:32.803Z,86.77
2023-04-18T16:43:32.898Z,86.37
2023-04-18T16:44:32.818Z,86.51
2023-04-18T16:45:31.837Z,87.69
2023-04-18T16:46:31.796Z,87.32
2023-04-18T16:47:32.756Z,87.84
2023-04-18T16:48:31.750Z,88.45
2023-04-18T16:49:31.674Z,87.94
2023-04-18T16:50:31.716Z,88.45
2023-04-18T16:51:31.584Z,88.90
2023-04-18T16:52:31.782Z,88.69
2023-04-18T16:53:31.609Z,89.00
2023-04-18T16:54:31.712Z,88.90
2023-04-18T16:55:31.664Z,89.30
2023-04-18T16:56:31.664Z,89.00
2023-04-18T16:57:31.631Z,89.65
2023-04-18T16:58:31.795Z,89.75
2023-04-18T16:59:31.749Z,89.20
2023-04-18T17:00:31.666Z,89.00
2023-04-18T17:01:31.660Z,88.59
2023-04-18T17:02:32.677Z,88.90
2023-04-18T17:03:31.748Z,88.34
2023-04-18T17:04:31.466Z,88.24
2023-04-18T17:05:31.627Z,88.18
2023-04-18T17:06:31.656Z,89.00
2023-04-18T17:07:31.618Z,88.79
2023-04-18T17:08:32.568Z,89.30
2023-04-18T17:09:31.651Z,89.61
2023-04-18T17:10:31.424Z,88.96
2023-04-18T17:11:31.743Z,88.85
2023-04-18T17:12:31.402Z,88.04
2023-04-18T17:13:31.640Z,87.53
2023-04-18T17:14:31.451Z,87.63
2023-04-18T17:15:31.511Z,88.28
2023-04-18T17:16:31.449Z,88.79
2023-04-18T17:17:31.427Z,88.93
2023-04-18T17:18:31.553Z,88.93
2023-04-18T17:19:31.314Z,89.34
2023-04-18T17:20:31.493Z,89.25
2023-04-18T17:21:31.291Z,89.79
2023-04-18T17:22:31.499Z,89.55
2023-04-18T17:23:32.889Z,89.25
2023-04-18T17:24:31.533Z,88.59
2023-04-18T17:25:31.321Z,88.12
2023-04-18T17:26:31.353Z,88.43
2023-04-18T17:27:31.343Z,88.73
2023-04-18T17:28:31.361Z,88.12
2023-04-18T17:29:31.335Z,88.02
2023-04-18T17:30:31.359Z,87.82
2023-04-18T17:31:31.339Z,87.67
2023-04-18T17:32:31.217Z,87.37
2023-04-18T17:33:31.477Z,87.67
2023-04-18T17:34:31.181Z,87.41
2023-04-18T17:35:31.250Z,87.92
2023-04-18T17:36:31.071Z,88.12
2023-04-18T17:37:31.310Z,88.43
2023-04-18T17:38:31.159Z,88.53
2023-04-18T17:39:31.231Z,88.17
2023-04-18T17:40:30.448Z,89.18
2023-04-18T17:41:31.231Z,88.63
2023-04-18T17:42:31.259Z,88.22
2023-04-18T17:43:31.256Z,88.26
2023-04-18T17:44:30.386Z,88.88
2023-04-18T17:45:32.179Z,88.84
2023-04-18T17:46:31.334Z,88.02
2023-04-18T17:47:31.062Z,88.26
2023-04-18T17:48:30.379Z,88.67
2023-04-18T17:49:30.934Z,89.53
2023-04-18T17:50:31.107Z,90.04
2023-04-18T17:51:31.972Z,89.69
2023-04-18T17:52:32.157Z,89.32
2023-04-18T17:53:32.046Z,89.43
2023-04-18T17:54:31.168Z,89.39
2023-04-18T17:55:31.940Z,88.98
2023-04-18T17:56:32.178Z,88.47
2023-04-18T17:57:30.949Z,89.39
2023-04-18T17:58:31.039Z,89.28
2023-04-18T17:59:31.018Z,88.57
2023-04-18T18:00:31.069Z,88.67
2023-04-18T18:01:31.148Z,89.08
2023-04-18T18:02:32.047Z,89.39
2023-04-18T18:03:31.259Z,89.18
2023-04-18T18:04:31.205Z,88.57
2023-04-18T18:05:30.317Z,89.08
2023-04-18T18:06:30.841Z,88.47
2023-04-18T18:07:31.960Z,88.37
2023-04-18T18:08:31.444Z,88.67
2023-04-18T18:09:30.930Z,88.98
2023-04-18T18:10:30.878Z,89.18
2023-04-18T18:11:31.128Z,88.78
2023-04-18T18:12:30.858Z,88.67
2023-04-18T18:13:30.928Z,88.17
2023-04-18T18:14:31.886Z,88.78
2023-04-18T18:15:31.935Z,89.25
2023-04-18T18:16:31.599Z,87.92
2023-04-18T18:17:30.627Z,88.12
2023-04-18T18:18:30.008Z,88.43
2023-04-18T18:19:30.630Z,88.73
2023-04-18T18:20:30.827Z,89.34
2023-04-18T18:21:30.822Z,89.25
2023-04-18T18:22:30.961Z,88.93
2023-04-18T18:23:30.704Z,88.28
2023-04-18T18:24:30.831Z,87.67
2023-04-18T18:25:30.631Z,88.18
2023-04-18T18:26:30.836Z,87.37
2023-04-18T18:27:30.622Z,87.57
2023-04-18T18:28:30.740Z,87.57
2023-04-18T18:29:31.162Z,87.37
2023-04-18T18:30:29.912Z,87.37
2023-04-18T18:31:30.905Z,87.47
2023-04-18T18:32:30.812Z,87.47
2023-04-18T18:33:30.632Z,87.06
2023-04-18T18:34:29.885Z,87.57
2023-04-18T18:35:30.689Z,88.18
2023-04-18T18:36:30.576Z,88.90
2023-04-18T18:37:30.719Z,88.18
2023-04-18T18:38:30.499Z,88.18
2023-04-18T18:39:30.618Z,87.00
2023-04-18T18:40:31.424Z,87.92
2023-04-18T18:41:30.645Z,87.92
2023-04-18T18:42:31.587Z,87.82
2023-04-18T18:43:30.558Z,88.88
2023-04-18T18:44:30.647Z,89.12
2023-04-18T18:45:31.537Z,89.58
2023-04-18T18:46:30.935Z,90.70
2023-04-18T18:47:30.408Z,90.90
2023-04-18T18:48:31.125Z,90.90
2023-04-18T18:49:30.357Z,91.20
2023-04-18T18:50:31.045Z,92.02
2023-04-18T18:51:30.331Z,91.31
2023-04-18T18:52:30.993Z,91.11
2023-04-18T18:53:30.443Z,91.52
2023-04-18T18:54:31.106Z,91.82
2023-04-18T18:55:30.387Z,90.90
2023-04-18T18:56:31.048Z,91.00
2023-04-18T18:57:31.097Z,90.70
2023-04-18T18:58:30.458Z,91.00
2023-04-18T18:59:30.502Z,91.31
2023-04-18T19:00:30.996Z,91.57
2023-04-18T19:01:30.411Z,91.27
2023-04-18T19:02:31.316Z,90.96
2023-04-18T19:03:31.449Z,90.75
2023-04-18T19:04:30.990Z,90.96
2023-04-18T19:05:30.339Z,91.11
2023-04-18T19:06:31.280Z,91.92
2023-04-18T19:07:30.359Z,92.43
2023-04-18T19:08:31.282Z,92.54
2023-04-18T19:09:30.432Z,93.05
2023-04-18T19:10:31.351Z,92.88
2023-04-18T19:11:29.436Z,93.50
2023-04-18T19:12:29.489Z,92.88
2023-04-18T19:13:30.805Z,93.40
2023-04-18T19:14:29.451Z,93.29
2023-04-18T19:15:31.325Z,93.19
2023-04-18T19:16:29.438Z,93.25
2023-04-18T19:17:30.041Z,92.84
2023-04-18T19:18:29.359Z,93.19
2023-04-18T19:19:31.084Z,93.50
2023-04-18T19:20:30.053Z,94.11
2023-04-18T19:21:30.055Z,94.56
2023-04-18T19:22:31.216Z,94.32
2023-04-18T19:23:29.984Z,94.56
2023-04-18T19:24:31.132Z,95.07
2023-04-18T19:25:30.062Z,95.69
2023-04-18T19:26:30.162Z,95.85
2023-04-18T19:27:30.068Z,95.54
2023-04-18T19:28:30.053Z,94.58
2023-04-18T19:29:32.710Z,93.45
2023-04-18T19:30:30.104Z,93.05
2023-04-18T19:31:30.057Z,93.15
2023-04-18T19:32:29.806Z,93.45
2023-04-18T19:33:29.961Z,92.43
2023-04-18T19:34:29.872Z,92.54
2023-04-18T19:35:29.984Z,92.43
2023-04-18T19:36:29.871Z,92.54
2023-04-18T19:37:29.975Z,92.59
2023-04-18T19:38:30.580Z,92.29
2023-04-18T19:39:30.044Z,91.78
2023-04-18T19:40:29.920Z,91.67
2023-04-18T19:41:30.010Z,91.37
2023-04-18T19:42:29.921Z,91.92
2023-04-18T19:43:29.891Z,92.54
2023-04-18T19:44:30.861Z,92.99
2023-04-18T19:45:29.952Z,93.40
2023-04-18T19:46:29.931Z,93.25
2023-04-18T19:47:29.866Z,92.64
2023-04-18T19:48:29.958Z,92.33
2023-04-18T19:49:29.725Z,92.23
2023-04-18T19:50:29.812Z,92.84
2023-04-18T19:51:29.732Z,92.64
2023-04-18T19:52:29.819Z,92.78
2023-04-18T19:53:29.670Z,93.40
2023-04-18T19:54:31.001Z,93.91
2023-04-18T19:55:30.760Z,94.37
2023-04-18T19:56:29.799Z,94.07
2023-04-18T19:57:29.656Z,93.45
2023-04-18T19:58:29.792Z,93.25
2023-04-18T19:59:29.703Z,93.45
2023-04-18T20:00:29.799Z,93.45
2023-04-18T20:01:29.735Z,93.96
2023-04-18T20:02:29.636Z,94.27
2023-04-18T20:03:29.790Z,94.07
2023-04-18T20:04:30.323Z,93.71
2023-04-18T20:05:29.913Z,93.21
2023-04-18T20:06:29.659Z,92.80
2023-04-18T20:07:29.820Z,92.29
2023-04-18T20:08:29.498Z,92.39
2023-04-18T20:09:29.628Z,92.39
2023-04-18T20:10:30.545Z,92.69
2023-04-18T20:11:29.719Z,92.29
2023-04-18T20:12:29.591Z,92.39
2023-04-18T20:13:29.599Z,92.39
2023-04-18T20:14:29.510Z,92.49
2023-04-18T20:15:30.678Z,92.39
2023-04-18T20:16:29.591Z,92.59
2023-04-18T20:17:29.598Z,92.90
2023-04-18T20:18:29.878Z,92.69
2023-04-18T20:19:29.422Z,92.39
2023-04-18T20:20:29.553Z,92.35
2023-04-18T20:21:29.389Z,92.04
2023-04-18T20:22:30.147Z,92.14
2023-04-18T20:23:31.076Z,91.94
2023-04-18T20:24:29.789Z,91.74
2023-04-18T20:25:29.439Z,91.98
2023-04-18T20:26:31.049Z,91.27
2023-04-18T20:27:30.737Z,91.78
2023-04-18T20:28:30.444Z,92.39
2023-04-18T20:29:30.368Z,92.39
2023-04-18T20:30:28.629Z,92.39
2023-04-18T20:31:30.374Z,91.57
2023-04-18T20:32:29.206Z,91.37
2023-04-18T20:33:29.427Z,92.08
2023-04-18T20:34:30.251Z,92.39
2023-04-18T20:35:29.368Z,91.57
2023-04-18T20:36:29.256Z,91.41
2023-04-18T20:37:29.415Z,91.96
2023-04-18T20:38:30.260Z,92.58
2023-04-18T20:39:29.456Z,92.99
2023-04-18T20:40:29.519Z,93.95
2023-04-18T20:41:30.307Z,94.36
2023-04-18T20:42:29.221Z,94.62
2023-04-18T20:43:30.277Z,94.11
2023-04-18T20:44:29.248Z,94.36
2023-04-18T20:45:29.292Z,94.93
2023-04-18T20:46:29.355Z,94.73
2023-04-18T20:47:29.030Z,94.42
2023-04-18T20:48:29.648Z,94.11
2023-04-18T20:49:28.989Z,93.50
2023-04-18T20:50:29.383Z,93.80
2023-04-18T20:51:28.999Z,93.50
2023-04-18T20:52:29.301Z,93.54
2023-04-18T20:53:29.237Z,93.74
2023-04-18T20:54:29.189Z,93.74
2023-04-18T20:55:29.069Z,93.85
2023-04-18T20:56:29.232Z,94.06
2023-04-18T20:57:29.357Z,94.26
2023-04-18T20:58:29.129Z,93.95
2023-04-18T20:59:28.309Z,93.85
2023-04-18T21:00:29.082Z,93.13
2023-04-18T21:01:29.213Z,93.74
2023-04-18T21:02:30.123Z,93.74
2023-04-18T21:03:29.244Z,93.44
2023-04-18T21:04:28.986Z,93.65
2023-04-18T21:05:29.320Z,93.07
2023-04-18T21:06:28.891Z,93.18
2023-04-18T21:07:29.156Z,93.99
2023-04-18T21:08:28.950Z,93.89
2023-04-18T21:09:29.029Z,94.30
2023-04-18T21:10:29.094Z,93.99
2023-04-18T21:11:29.020Z,93.48
2023-04-18T21:12:28.886Z,93.65
2023-04-18T21:13:29.049Z,93.24
2023-04-18T21:14:28.863Z,93.54
2023-04-18T21:15:28.908Z,93.95
2023-04-18T21:16:29.001Z,92.83
2023-04-18T21:17:29.014Z,92.42
2023-04-18T21:18:29.028Z,91.70
2023-04-18T21:19:28.812Z,91.60
2023-04-18T21:20:28.863Z,92.11
2023-04-18T21:21:28.780Z,91.70
2023-04-18T21:22:28.931Z,91.64
2023-04-18T21:23:28.759Z,92.42
2023-04-18T21:24:29.098Z,92.83
2023-04-18T21:25:28.749Z,92.72
2023-04-18T21:26:29.057Z,91.91
2023-04-18T21:27:28.687Z,92.36
2023-04-18T21:28:28.801Z,92.46
2023-04-18T21:29:28.769Z,92.83
2023-04-18T21:30:28.816Z,92.83
2023-04-18T21:31:28.736Z,92.62
2023-04-18T21:32:28.738Z,92.11
2023-04-18T21:33:28.840Z,91.29
2023-04-18T21:34:28.559Z,91.33
2023-04-18T21:35:28.919Z,91.33
2023-04-18T21:36:28.689Z,91.89
2023-04-18T21:37:28.692Z,92.46
2023-04-18T21:38:28.528Z,92.66
2023-04-18T21:39:28.709Z,92.15
2023-04-18T21:40:28.678Z,92.10
2023-04-18T21:41:28.906Z,92.81
2023-04-18T21:42:28.543Z,92.50
2023-04-18T21:43:28.810Z,93.16
2023-04-18T21:44:28.562Z,93.43
2023-04-18T21:45:28.726Z,92.91
2023-04-18T21:46:29.601Z,92.44
2023-04-18T21:47:28.640Z,93.26
2023-04-18T21:48:28.559Z,92.75
2023-04-18T21:49:28.381Z,93.00
2023-04-18T21:50:28.691Z,93.88
2023-04-18T21:51:28.443Z,93.82
2023-04-18T21:52:28.582Z,93.82
2023-04-18T21:53:28.411Z,93.71
2023-04-18T21:54:28.619Z,93.20
2023-04-18T21:55:28.428Z,93.82
2023-04-18T21:56:28.539Z,93.71
2023-04-18T21:57:28.410Z,93.26
2023-04-18T21:58:28.480Z,93.26
2023-04-18T21:59:28.399Z,93.37
2023-04-18T22:00:28.621Z,92.55
2023-04-18T22:01:28.492Z,93.26
2023-04-18T22:02:28.505Z,93.00
2023-04-18T22:03:28.597Z,92.90
2023-04-18T22:04:28.477Z,93.04
2023-04-18T22:05:28.448Z,93.51
2023-04-18T22:06:28.198Z,93.00
2023-04-18T22:07:28.429Z,93.62
2023-04-18T22:08:28.257Z,92.38
2023-04-18T22:09:28.420Z,92.08
2023-04-18T22:10:28.226Z,92.38
2023-04-18T22:11:28.393Z,92.49
2023-04-18T22:12:28.260Z,92.55
2023-04-18T22:13:28.358Z,92.55
2023-04-18T22:14:28.237Z,91.42
2023-04-18T22:15:28.399Z,90.81
2023-04-18T22:16:28.229Z,89.98
2023-04-18T22:17:28.459Z,90.09
2023-04-18T22:18:28.429Z,90.05
2023-04-18T22:19:28.130Z,89.84
2023-04-18T22:20:28.241Z,89.94
2023-04-18T22:21:29.166Z,89.33
2023-04-18T22:22:28.313Z,89.29
2023-04-18T22:23:28.109Z,88.06
2023-04-18T22:24:28.380Z,87.55
2023-04-18T22:25:28.127Z,87.18
2023-04-18T22:26:28.350Z,88.62
2023-04-18T22:27:28.090Z,86.77
2023-04-18T22:28:29.232Z,88.37
2023-04-18T22:29:28.070Z,89.18
2023-04-18T22:30:28.360Z,88.33
2023-04-18T22:31:28.174Z,85.81
2023-04-18T22:32:28.172Z,87.30
2023-04-18T22:33:28.229Z,87.85
2023-04-18T22:34:28.029Z,86.43
2023-04-18T22:35:28.038Z,87.71
2023-04-18T22:36:28.097Z,85.71
2023-04-18T22:37:28.056Z,87.35
2023-04-18T22:38:27.941Z,86.73
2023-04-18T22:39:28.028Z,86.43
2023-04-18T22:40:27.979Z,86.77
2023-04-18T22:41:28.070Z,87.49
2023-04-18T22:42:27.573Z,88.62
2023-04-18T22:43:28.092Z,88.92
2023-04-18T22:44:27.908Z,88.62
2023-04-18T22:45:28.031Z,89.53
2023-04-18T22:46:28.096Z,89.53
2023-04-18T22:47:28.003Z,89.74
2023-04-18T22:48:27.882Z,89.74
2023-04-18T22:49:27.870Z,89.64
2023-04-18T22:50:27.890Z,88.96
2023-04-18T22:51:27.858Z,89.62
2023-04-18T22:52:28.000Z,90.13
2023-04-18T22:53:27.753Z,89.72
2023-04-18T22:54:27.989Z,89.51
2023-04-18T22:55:27.809Z,90.75
2023-04-18T22:56:28.130Z,90.09
2023-04-18T22:57:28.549Z,89.58
2023-04-18T22:58:27.854Z,89.06
2023-04-18T22:59:27.780Z,89.17
2023-04-18T23:00:27.871Z,89.58
2023-04-18T23:01:27.840Z,89.17
2023-04-18T23:02:28.119Z,88.96
2023-04-18T23:03:27.892Z,88.96
2023-04-18T23:04:27.888Z,88.76
2023-04-18T23:05:27.842Z,88.59
2023-04-18T23:06:27.570Z,88.70
2023-04-18T23:07:27.722Z,90.34
2023-04-18T23:08:27.576Z,89.92
2023-04-18T23:09:27.797Z,90.03
2023-04-18T23:10:27.660Z,88.70
2023-04-18T23:11:27.755Z,89.51
2023-04-18T23:12:27.574Z,89.00
2023-04-18T23:13:27.834Z,89.00
2023-04-18T23:14:28.763Z,89.83
2023-04-18T23:15:27.778Z,89.83
2023-04-18T23:16:27.653Z,89.00
2023-04-18T23:17:27.742Z,89.72
2023-04-18T23:18:27.664Z,90.03
2023-04-18T23:19:27.564Z,89.42
2023-04-18T23:20:27.755Z,88.70
2023-04-18T23:21:27.402Z,89.72
2023-04-18T23:22:26.784Z,90.34
2023-04-18T23:23:27.434Z,88.90
2023-04-18T23:24:27.665Z,89.42
2023-04-18T23:25:27.513Z,88.39
2023-04-18T23:26:27.656Z,89.42
2023-04-18T23:27:27.499Z,88.39
2023-04-18T23:28:26.754Z,88.74
2023-04-18T23:29:27.434Z,89.25
2023-04-18T23:30:28.536Z,90.28
2023-04-18T23:31:27.679Z,90.28
2023-04-18T23:32:27.570Z,89.87
2023-04-18T23:33:27.394Z,91.05
2023-04-18T23:34:27.299Z,89.83
2023-04-18T23:35:27.464Z,90.64
2023-04-18T23:36:27.323Z,89.97
2023-04-18T23:37:27.634Z,90.23
2023-04-18T23:38:27.253Z,90.44
2023-04-18T23:39:27.433Z,90.34
2023-04-18T23:40:28.375Z,89.83
2023-04-18T23:41:27.494Z,88.80
2023-04-18T23:42:27.347Z,89.51
2023-04-18T23:43:27.519Z,90.03
2023-04-18T23:44:27.296Z,90.13
2023-04-18T23:45:27.573Z,90.75
2023-04-18T23:46:27.247Z,90.64
2023-04-18T23:47:27.390Z,90.13
2023-04-18T23:48:27.326Z,89.83
2023-04-18T23:49:27.112Z,90.17
2023-04-18T23:50:27.352Z,90.64
2023-04-18T23:51:27.090Z,90.13
2023-04-18T23:52:27.288Z,89.42
2023-04-18T23:53:27.206Z,90.03
2023-04-18T23:54:27.345Z,89.42
2023-04-18T23:55:27.081Z,89.83
2023-04-18T23:56:27.252Z,89.83
2023-04-18T23:57:27.185Z,89.62
2023-04-18T23:58:27.236Z,89.31
2023-04-18T23:59:27.302Z,89.92
